createdAt,value
2023-02-06T00:01:36.736Z,1.50
2023-02-06T00:04:04.462Z,1.50
2023-02-06T00:06:31.661Z,1.50
2023-02-06T00:08:58.536Z,1.50
2023-02-06T00:11:25.741Z,1.50
2023-02-06T00:13:52.856Z,1.40
2023-02-06T00:16:24.154Z,1.40
2023-02-06T00:18:52.538Z,1.40
2023-02-06T00:21:22.026Z,1.30
2023-02-06T00:23:49.506Z,1.30
2023-02-06T00:26:17.247Z,1.20
2023-02-06T00:28:45.926Z,1.20
2023-02-06T00:31:14.021Z,1.20
2023-02-06T00:33:42.145Z,1.20
2023-02-06T00:36:10.479Z,1.10
2023-02-06T00:38:38.225Z,1.10
2023-02-06T00:41:06.169Z,1.10
2023-02-06T00:43:33.638Z,1.00
2023-02-06T00:46:00.640Z,1.00
2023-02-06T00:48:27.638Z,1.00
2023-02-06T00:50:55.016Z,1.00
2023-02-06T00:53:22.305Z,0.90
2023-02-06T00:55:49.224Z,0.90
2023-02-06T00:58:16.256Z,0.90
2023-02-06T01:00:44.419Z,0.80
2023-02-06T01:03:12.019Z,0.80
2023-02-06T01:05:39.251Z,0.80
2023-02-06T01:08:06.215Z,0.80
2023-02-06T01:10:33.341Z,0.70
2023-02-06T01:13:00.953Z,0.70
2023-02-06T01:15:28.317Z,0.70
2023-02-06T01:17:56.058Z,0.70
2023-02-06T01:20:23.851Z,0.60
2023-02-06T01:22:52.055Z,0.60
2023-02-06T01:25:19.027Z,0.60
2023-02-06T01:27:46.044Z,0.60
2023-02-06T01:30:14.363Z,0.60
2023-02-06T01:32:42.341Z,0.50
2023-02-06T01:35:11.701Z,0.50
2023-02-06T01:37:41.180Z,0.50
2023-02-06T01:40:14.295Z,0.50
2023-02-06T01:42:41.606Z,0.50
2023-02-06T01:45:26.733Z,0.40
2023-02-06T01:48:02.226Z,0.40
2023-02-06T01:50:32.698Z,0.40
2023-02-06T01:53:00.792Z,0.40
2023-02-06T01:55:28.150Z,0.40
2023-02-06T01:57:55.139Z,0.40
2023-02-06T02:00:22.215Z,0.30
2023-02-06T02:02:49.904Z,0.30
2023-02-06T02:05:19.209Z,0.30
2023-02-06T02:08:10.292Z,0.20
2023-02-06T02:10:38.111Z,0.20
2023-02-06T02:13:04.973Z,0.20
2023-02-06T02:16:19.414Z,0.20
2023-02-06T02:19:40.012Z,0.20
2023-02-06T02:22:39.790Z,0.20
2023-02-06T02:25:37.700Z,0.20
2023-02-06T02:28:22.862Z,0.20
2023-02-06T02:31:01.267Z,0.10
2023-02-06T02:34:00.636Z,0.10
2023-02-06T02:36:44.136Z,0.10
2023-02-06T02:39:37.558Z,0.00
2023-02-06T02:42:25.125Z,0.10
2023-02-06T02:45:21.112Z,0.10
2023-02-06T02:48:00.019Z,0.10
2023-02-06T02:50:29.309Z,0.10
2023-02-06T02:53:00.730Z,0.10
2023-02-06T02:55:28.012Z,0.10
2023-02-06T02:58:11.968Z,0.00
2023-02-06T03:00:51.063Z,0.00
2023-02-06T03:03:23.238Z,0.00
2023-02-06T03:06:32.022Z,0.00
2023-02-06T03:09:06.755Z,0.00
2023-02-06T03:11:44.848Z,-0.10
2023-02-06T03:14:34.242Z,0.00
2023-02-06T03:17:17.267Z,0.00
2023-02-06T03:19:53.328Z,0.00
2023-02-06T03:22:24.432Z,-0.10
2023-02-06T03:24:53.284Z,-0.10
2023-02-06T03:27:22.575Z,-0.10
2023-02-06T03:29:53.660Z,-0.10
2023-02-06T03:32:31.148Z,-0.20
2023-02-06T03:35:18.045Z,-0.20
2023-02-06T03:37:47.348Z,-0.20
2023-02-06T03:40:15.845Z,-0.20
2023-02-06T03:42:50.726Z,-0.20
2023-02-06T03:45:28.484Z,-0.30
2023-02-06T03:48:01.967Z,-0.30
2023-02-06T03:50:30.124Z,-0.30
2023-02-06T03:53:01.405Z,-0.30
2023-02-06T03:55:28.417Z,-0.30
2023-02-06T03:58:08.233Z,-0.30
2023-02-06T04:00:37.313Z,-0.30
2023-02-06T04:03:05.051Z,-0.30
2023-02-06T04:05:31.900Z,-0.30
2023-02-06T04:07:58.829Z,-0.30
2023-02-06T04:10:26.496Z,-0.30
2023-02-06T04:12:54.339Z,-0.30
2023-02-06T04:15:21.626Z,-0.30
2023-02-06T04:17:59.378Z,-0.30
2023-02-06T04:20:28.584Z,-0.40
2023-02-06T04:22:55.983Z,-0.30
2023-02-06T04:25:23.159Z,-0.30
2023-02-06T04:27:50.670Z,-0.30
2023-02-06T04:30:18.331Z,-0.30
2023-02-06T04:32:45.522Z,-0.20
2023-02-06T04:35:12.607Z,-0.10
2023-02-06T04:37:39.586Z,-0.10
2023-02-06T04:40:07.193Z,-0.10
2023-02-06T04:42:34.164Z,-0.10
2023-02-06T04:45:01.151Z,-0.10
2023-02-06T04:47:28.040Z,0.00
2023-02-06T04:49:54.961Z,0.10
2023-02-06T04:52:22.107Z,0.20
2023-02-06T04:54:49.066Z,0.20
2023-02-06T04:57:16.053Z,0.30
2023-02-06T04:59:42.870Z,0.30
2023-02-06T05:02:09.876Z,0.50
2023-02-06T05:04:38.838Z,0.50
2023-02-06T05:07:05.938Z,0.60
2023-02-06T05:09:33.113Z,0.60
2023-02-06T05:12:00.134Z,0.70
2023-02-06T05:14:27.116Z,0.70
2023-02-06T05:16:54.076Z,0.80
2023-02-06T05:19:21.010Z,0.80
2023-02-06T05:21:47.907Z,0.80
2023-02-06T05:24:14.792Z,0.80
2023-02-06T05:26:41.713Z,0.80
2023-02-06T05:29:08.681Z,0.80
2023-02-06T05:31:36.193Z,0.80
2023-02-06T05:34:03.533Z,0.80
2023-02-06T05:36:30.402Z,0.80
2023-02-06T05:38:57.351Z,0.90
2023-02-06T05:41:24.272Z,0.90
2023-02-06T05:43:51.140Z,0.90
2023-02-06T05:46:19.339Z,0.90
2023-02-06T05:48:46.286Z,0.90
2023-02-06T05:51:13.230Z,0.90
2023-02-06T05:53:40.446Z,0.90
2023-02-06T05:56:07.631Z,0.90
2023-02-06T05:58:34.700Z,1.00
2023-02-06T06:01:01.669Z,1.00
2023-02-06T06:03:28.609Z,1.00
2023-02-06T06:05:56.192Z,1.00
2023-02-06T06:08:23.478Z,1.00
2023-02-06T06:10:52.304Z,0.90
2023-02-06T06:13:19.619Z,1.00
2023-02-06T06:15:50.593Z,0.90
2023-02-06T06:18:18.243Z,0.90
2023-02-06T06:20:45.311Z,1.00
2023-02-06T06:23:12.297Z,1.00
2023-02-06T06:25:39.560Z,1.00
2023-02-06T06:28:06.720Z,1.00
2023-02-06T06:30:35.624Z,1.00
2023-02-06T06:33:02.703Z,1.00
2023-02-06T06:35:29.629Z,1.00
2023-02-06T06:37:56.512Z,1.00
2023-02-06T06:40:23.439Z,1.00
2023-02-06T06:42:50.923Z,1.00
2023-02-06T06:45:18.424Z,1.00
2023-02-06T06:47:46.319Z,1.00
2023-02-06T06:50:14.793Z,0.90
2023-02-06T06:52:43.540Z,1.00
2023-02-06T06:55:11.966Z,1.00
2023-02-06T06:57:39.422Z,1.00
2023-02-06T07:00:07.580Z,1.00
2023-02-06T07:02:35.355Z,1.00
2023-02-06T07:05:05.121Z,1.00
2023-02-06T07:07:32.975Z,1.10
2023-02-06T07:11:08.580Z,1.10
2023-02-06T07:13:36.205Z,1.10
2023-02-06T07:16:03.194Z,1.10
2023-02-06T07:18:30.315Z,1.20
2023-02-06T07:20:57.203Z,1.20
2023-02-06T07:23:24.294Z,1.20
2023-02-06T07:25:51.269Z,1.20
2023-02-06T07:28:18.208Z,1.20
2023-02-06T07:30:45.253Z,1.30
2023-02-06T07:33:12.138Z,1.30
2023-02-06T07:35:39.061Z,1.30
2023-02-06T07:38:05.980Z,1.30
2023-02-06T07:40:43.230Z,1.30
2023-02-06T07:43:11.438Z,1.30
2023-02-06T07:45:38.870Z,1.40
2023-02-06T07:48:07.286Z,1.40
2023-02-06T07:50:34.604Z,1.50
2023-02-06T07:53:02.406Z,1.40
2023-02-06T07:55:30.365Z,1.50
2023-02-06T07:57:57.267Z,1.50
2023-02-06T08:00:24.329Z,1.50
2023-02-06T08:02:51.788Z,1.50
2023-02-06T08:05:18.862Z,1.50
2023-02-06T08:07:45.813Z,1.50
2023-02-06T08:10:12.738Z,1.60
2023-02-06T08:12:39.632Z,1.60
2023-02-06T08:15:06.981Z,1.70
2023-02-06T08:17:33.825Z,1.70
2023-02-06T08:20:00.714Z,1.70
2023-02-06T08:22:29.970Z,1.80
2023-02-06T08:24:56.819Z,1.80
2023-02-06T08:27:23.671Z,1.80
2023-02-06T08:29:51.623Z,1.80
2023-02-06T08:32:18.540Z,1.80
2023-02-06T08:34:45.424Z,1.80
2023-02-06T08:37:12.433Z,1.80
2023-02-06T08:39:39.468Z,1.90
2023-02-06T08:42:06.372Z,1.90
2023-02-06T08:44:33.474Z,1.90
2023-02-06T08:47:09.747Z,1.90
2023-02-06T08:49:38.150Z,1.90
2023-02-06T08:52:05.842Z,2.00
2023-02-06T08:54:34.944Z,2.00
2023-02-06T08:57:03.193Z,2.00
2023-02-06T08:59:30.934Z,2.10
2023-02-06T09:01:58.185Z,2.20
2023-02-06T09:04:25.036Z,2.20
2023-02-06T09:06:52.161Z,2.30
2023-02-06T09:09:19.695Z,2.30
2023-02-06T09:11:46.673Z,2.40
2023-02-06T09:14:17.272Z,2.40
2023-02-06T09:16:44.476Z,2.50
2023-02-06T09:19:12.163Z,2.50
2023-02-06T09:21:39.708Z,2.50
2023-02-06T09:24:09.368Z,2.50
2023-02-06T09:26:53.391Z,2.60
2023-02-06T09:29:24.215Z,2.60
2023-02-06T09:31:51.091Z,2.70
2023-02-06T09:34:17.987Z,2.80
2023-02-06T09:36:44.995Z,2.80
2023-02-06T09:39:11.968Z,2.80
2023-02-06T09:41:56.613Z,2.90
2023-02-06T09:44:30.013Z,2.90
2023-02-06T09:47:12.281Z,3.00
2023-02-06T09:49:58.722Z,3.10
2023-02-06T09:53:16.151Z,3.10
2023-02-06T09:55:49.436Z,3.20
2023-02-06T09:58:51.409Z,3.30
2023-02-06T10:01:36.634Z,3.30
2023-02-06T10:04:22.254Z,3.40
2023-02-06T10:07:25.671Z,3.40
2023-02-06T10:10:33.592Z,3.40
2023-02-06T10:13:51.011Z,3.50
2023-02-06T10:16:26.780Z,3.50
2023-02-06T10:19:01.142Z,3.60
2023-02-06T10:21:34.078Z,3.60
2023-02-06T10:24:16.556Z,3.70
2023-02-06T10:26:44.760Z,3.80
2023-02-06T10:29:45.330Z,4.00
2023-02-06T10:32:28.290Z,4.20
2023-02-06T10:35:23.101Z,4.40
2023-02-06T10:38:25.676Z,4.50
2023-02-06T10:41:19.564Z,4.80
2023-02-06T10:44:19.427Z,5.00
2023-02-06T10:46:51.168Z,5.10
2023-02-06T10:49:47.605Z,5.10
2023-02-06T10:52:41.613Z,5.20
2023-02-06T10:55:27.358Z,5.00
2023-02-06T10:58:06.900Z,5.00
2023-02-06T11:00:34.796Z,4.90
2023-02-06T11:03:11.658Z,4.90
2023-02-06T11:05:38.965Z,5.00
2023-02-06T11:08:43.679Z,5.00
2023-02-06T11:11:29.676Z,4.90
2023-02-06T11:14:07.735Z,4.80
2023-02-06T11:16:37.499Z,4.90
2023-02-06T11:19:31.691Z,4.90
2023-02-06T11:22:09.318Z,4.90
2023-02-06T11:24:38.354Z,4.90
2023-02-06T11:27:20.891Z,4.90
2023-02-06T11:29:51.967Z,4.90
2023-02-06T11:32:41.076Z,5.00
2023-02-06T11:35:39.512Z,5.10
2023-02-06T11:38:21.922Z,5.20
2023-02-06T11:41:15.879Z,5.30
2023-02-06T11:43:42.653Z,5.40
2023-02-06T11:46:16.765Z,5.50
2023-02-06T11:49:08.179Z,5.50
2023-02-06T11:52:00.616Z,5.60
2023-02-06T11:54:31.650Z,5.60
2023-02-06T11:57:09.265Z,5.60
2023-02-06T11:59:51.039Z,5.70
2023-02-06T12:02:39.105Z,5.70
2023-02-06T12:05:16.086Z,5.80
2023-02-06T12:07:50.169Z,5.80
2023-02-06T12:10:21.475Z,5.90
2023-02-06T12:13:12.402Z,5.90
2023-02-06T12:15:47.299Z,5.90
2023-02-06T12:18:25.964Z,5.90
2023-02-06T12:21:30.132Z,5.90
2023-02-06T12:24:03.401Z,5.80
2023-02-06T12:26:33.744Z,5.90
2023-02-06T12:29:36.287Z,5.90
2023-02-06T12:32:20.814Z,6.00
2023-02-06T12:35:41.236Z,6.00
2023-02-06T12:38:55.901Z,6.00
2023-02-06T12:41:54.172Z,6.00
2023-02-06T12:44:54.161Z,5.90
2023-02-06T12:48:01.771Z,5.80
2023-02-06T12:50:43.431Z,5.80
2023-02-06T12:53:23.533Z,5.70
2023-02-06T12:56:07.947Z,5.70
2023-02-06T12:58:42.816Z,5.80
2023-02-06T13:01:37.276Z,5.80
2023-02-06T13:04:25.712Z,5.80
2023-02-06T13:07:11.231Z,5.90
2023-02-06T13:09:55.654Z,6.00
2023-02-06T13:12:26.631Z,6.10
2023-02-06T13:15:01.917Z,6.20
2023-02-06T13:17:42.622Z,6.30
2023-02-06T13:20:11.413Z,6.40
2023-02-06T13:22:44.707Z,6.60
2023-02-06T13:25:29.109Z,6.70
2023-02-06T13:28:00.915Z,6.80
2023-02-06T13:30:30.649Z,6.90
2023-02-06T13:33:20.666Z,7.00
2023-02-06T13:36:15.715Z,7.20
2023-02-06T13:38:43.569Z,7.40
2023-02-06T13:41:16.310Z,7.40
2023-02-06T13:43:56.586Z,7.40
2023-02-06T13:46:51.485Z,7.40
2023-02-06T13:50:19.278Z,7.40
2023-02-06T13:53:03.876Z,7.30
2023-02-06T13:56:08.004Z,7.30
2023-02-06T13:58:48.146Z,7.30
2023-02-06T14:01:23.033Z,7.30
2023-02-06T14:03:51.129Z,7.30
2023-02-06T14:06:44.463Z,7.30
2023-02-06T14:09:43.896Z,7.20
2023-02-06T14:12:47.547Z,7.20
2023-02-06T14:15:49.415Z,7.10
2023-02-06T14:18:55.270Z,7.10
2023-02-06T14:22:20.696Z,7.10
2023-02-06T14:25:14.286Z,7.10
2023-02-06T14:28:31.728Z,7.10
2023-02-06T14:31:10.473Z,7.00
2023-02-06T14:34:00.256Z,7.10
2023-02-06T14:36:48.482Z,7.10
2023-02-06T14:39:40.625Z,7.10
2023-02-06T14:42:20.577Z,7.20
2023-02-06T14:44:59.018Z,7.50
2023-02-06T14:47:39.970Z,8.10
2023-02-06T14:50:25.398Z,8.80
2023-02-06T14:52:58.944Z,9.60
2023-02-06T14:55:44.462Z,10.10
2023-02-06T14:58:28.276Z,9.90
2023-02-06T15:01:11.304Z,9.50
2023-02-06T15:03:40.115Z,9.10
2023-02-06T15:06:12.200Z,8.80
2023-02-06T15:08:48.564Z,8.60
2023-02-06T15:11:33.068Z,8.30
2023-02-06T15:14:21.553Z,8.10
2023-02-06T15:16:51.283Z,8.00
2023-02-06T15:19:26.218Z,7.80
2023-02-06T15:22:00.337Z,7.70
2023-02-06T15:24:56.008Z,7.60
2023-02-06T15:27:36.567Z,7.50
2023-02-06T15:30:22.059Z,7.50
2023-02-06T15:32:52.478Z,7.40
2023-02-06T15:35:23.587Z,7.30
2023-02-06T15:37:53.362Z,7.30
2023-02-06T15:40:31.244Z,7.30
2023-02-06T15:43:01.222Z,7.20
2023-02-06T15:45:35.721Z,7.20
2023-02-06T15:48:27.805Z,7.20
2023-02-06T15:51:01.985Z,7.10
2023-02-06T15:53:34.239Z,7.10
2023-02-06T15:56:04.961Z,7.10
2023-02-06T15:58:33.789Z,7.00
2023-02-06T16:01:02.325Z,7.10
2023-02-06T16:03:31.212Z,7.00
2023-02-06T16:05:58.266Z,7.00
2023-02-06T16:08:32.036Z,7.00
2023-02-06T16:11:29.145Z,7.00
2023-02-06T16:13:57.555Z,7.00
2023-02-06T16:16:27.235Z,6.90
2023-02-06T16:18:58.869Z,6.90
2023-02-06T16:21:32.255Z,6.90
2023-02-06T16:24:00.033Z,6.80
2023-02-06T16:26:32.061Z,6.80
2023-02-06T16:29:10.876Z,6.70
2023-02-06T16:31:43.477Z,6.60
2023-02-06T16:34:32.093Z,6.50
2023-02-06T16:36:58.997Z,6.50
2023-02-06T16:39:25.859Z,6.40
2023-02-06T16:41:53.644Z,6.30
2023-02-06T16:44:21.182Z,6.30
2023-02-06T16:46:48.117Z,6.20
2023-02-06T16:49:20.574Z,6.10
2023-02-06T16:51:51.837Z,6.00
2023-02-06T16:54:27.584Z,5.90
2023-02-06T16:56:59.040Z,5.80
2023-02-06T16:59:25.916Z,5.70
2023-02-06T17:01:52.931Z,5.60
2023-02-06T17:04:19.916Z,5.60
2023-02-06T17:06:47.268Z,5.50
2023-02-06T17:09:18.485Z,5.40
2023-02-06T17:11:45.628Z,5.40
2023-02-06T17:14:12.709Z,5.30
2023-02-06T17:16:39.756Z,5.20
2023-02-06T17:19:06.916Z,5.20
2023-02-06T17:21:34.139Z,5.10
2023-02-06T17:24:01.647Z,5.10
2023-02-06T17:26:28.651Z,5.00
2023-02-06T17:28:55.655Z,4.90
2023-02-06T17:31:23.140Z,4.90
2023-02-06T17:33:50.455Z,4.90
2023-02-06T17:36:26.784Z,4.90
2023-02-06T17:38:53.745Z,4.90
2023-02-06T17:41:20.656Z,4.90
2023-02-06T17:43:47.606Z,4.80
2023-02-06T17:46:14.630Z,4.80
2023-02-06T17:48:42.703Z,4.80
2023-02-06T17:51:10.676Z,4.80
2023-02-06T17:53:39.383Z,4.80
2023-02-06T17:56:13.075Z,4.70
2023-02-06T17:58:43.850Z,4.70
2023-02-06T18:01:21.817Z,4.60
2023-02-06T18:03:50.401Z,4.50
2023-02-06T18:06:18.904Z,4.50
2023-02-06T18:08:46.901Z,4.40
2023-02-06T18:11:20.315Z,4.30
2023-02-06T18:13:49.620Z,4.30
2023-02-06T18:16:21.862Z,4.20
2023-02-06T18:18:49.734Z,4.10
2023-02-06T18:21:21.478Z,4.10
2023-02-06T18:23:49.061Z,4.00
2023-02-06T18:26:16.951Z,4.00
2023-02-06T18:28:44.287Z,3.90
2023-02-06T18:31:33.081Z,3.80
2023-02-06T18:34:04.459Z,3.80
2023-02-06T18:36:31.389Z,3.70
2023-02-06T18:38:58.333Z,3.70
2023-02-06T18:41:43.978Z,3.60
2023-02-06T18:44:12.285Z,3.50
2023-02-06T18:46:39.844Z,3.50
2023-02-06T18:49:07.481Z,3.50
2023-02-06T18:51:34.897Z,3.40
2023-02-06T18:54:02.192Z,3.40
2023-02-06T18:56:29.166Z,3.30
2023-02-06T18:58:56.260Z,3.20
2023-02-06T19:01:25.675Z,3.20
2023-02-06T19:03:54.083Z,3.20
2023-02-06T19:06:34.093Z,3.10
2023-02-06T19:09:01.375Z,3.10
2023-02-06T19:11:28.638Z,3.10
2023-02-06T19:13:56.425Z,3.10
2023-02-06T19:16:23.352Z,3.10
2023-02-06T19:18:50.586Z,3.10
2023-02-06T19:21:21.099Z,3.10
2023-02-06T19:23:58.916Z,3.00
2023-02-06T19:26:28.047Z,3.00
2023-02-06T19:28:57.236Z,3.00
2023-02-06T19:31:24.814Z,2.90
2023-02-06T19:33:57.844Z,2.90
2023-02-06T19:36:27.517Z,2.90
2023-02-06T19:38:58.769Z,2.90
2023-02-06T19:41:28.760Z,2.90
2023-02-06T19:43:57.475Z,2.80
2023-02-06T19:46:26.899Z,2.80
2023-02-06T19:48:55.689Z,2.80
2023-02-06T19:51:32.705Z,2.70
2023-02-06T19:54:00.408Z,2.70
2023-02-06T19:56:40.639Z,2.60
2023-02-06T19:59:18.033Z,2.60
2023-02-06T20:01:54.664Z,2.50
2023-02-06T20:04:25.656Z,2.40
2023-02-06T20:06:53.029Z,2.40
2023-02-06T20:09:21.551Z,2.30
2023-02-06T20:11:49.235Z,2.20
2023-02-06T20:14:18.502Z,2.20
2023-02-06T20:16:46.078Z,2.10
2023-02-06T20:19:18.885Z,2.10
2023-02-06T20:21:50.430Z,2.00
2023-02-06T20:24:22.642Z,2.00
2023-02-06T20:26:56.289Z,1.90
2023-02-06T20:29:34.641Z,1.90
2023-02-06T20:32:03.346Z,1.90
2023-02-06T20:34:31.121Z,1.80
2023-02-06T20:36:59.272Z,1.80
2023-02-06T20:39:27.493Z,1.80
2023-02-06T20:41:54.687Z,1.70
2023-02-06T20:44:22.001Z,1.70
2023-02-06T20:46:49.809Z,1.70
2023-02-06T20:49:24.454Z,1.60
2023-02-06T20:51:52.012Z,1.60
2023-02-06T20:54:20.757Z,1.60
2023-02-06T20:56:48.424Z,1.50
2023-02-06T20:59:18.455Z,1.50
2023-02-06T21:01:45.704Z,1.50
2023-02-06T21:04:16.310Z,1.40
2023-02-06T21:06:44.107Z,1.40
2023-02-06T21:09:11.885Z,1.30
2023-02-06T21:11:45.818Z,1.30
2023-02-06T21:14:14.091Z,1.20
2023-02-06T21:16:43.647Z,1.20
2023-02-06T21:19:14.529Z,1.10
2023-02-06T21:21:44.294Z,1.10
2023-02-06T21:24:13.831Z,1.10
2023-02-06T21:26:40.821Z,1.10
2023-02-06T21:29:08.104Z,1.00
2023-02-06T21:31:38.619Z,1.00
2023-02-06T21:34:18.341Z,1.00
2023-02-06T21:36:46.096Z,0.90
2023-02-06T21:39:20.639Z,0.90
2023-02-06T21:41:53.643Z,0.90
2023-02-06T21:44:24.462Z,0.80
2023-02-06T21:46:52.164Z,0.80
2023-02-06T21:49:21.000Z,0.80
2023-02-06T21:51:47.952Z,0.80
2023-02-06T21:54:14.858Z,0.70
2023-02-06T21:56:41.797Z,0.80
2023-02-06T21:59:11.548Z,0.70
2023-02-06T22:01:41.457Z,0.70
2023-02-06T22:04:11.234Z,0.70
2023-02-06T22:06:39.108Z,0.70
2023-02-06T22:09:15.097Z,0.60
2023-02-06T22:11:43.108Z,0.60
2023-02-06T22:14:17.166Z,0.50
2023-02-06T22:16:46.751Z,0.50
2023-02-06T22:19:14.857Z,0.50
2023-02-06T22:21:42.497Z,0.50
2023-02-06T22:24:11.973Z,0.50
2023-02-06T22:26:39.526Z,0.50
2023-02-06T22:29:11.181Z,0.50
2023-02-06T22:31:40.802Z,0.50
2023-02-06T22:34:11.729Z,0.60
2023-02-06T22:36:39.505Z,0.60
2023-02-06T22:39:09.877Z,0.70
2023-02-06T22:41:40.945Z,0.80
2023-02-06T22:44:08.698Z,0.80
2023-02-06T22:46:38.681Z,0.90
2023-02-06T22:49:08.149Z,0.80
2023-02-06T22:51:40.064Z,0.80
2023-02-06T22:54:11.289Z,0.80
2023-02-06T22:56:39.884Z,0.80
2023-02-06T22:59:25.355Z,0.80
2023-02-06T23:01:58.447Z,0.80
2023-02-06T23:04:34.476Z,0.80
2023-02-06T23:07:02.220Z,0.90
2023-02-06T23:09:33.822Z,0.90
2023-02-06T23:12:02.074Z,0.90
2023-02-06T23:14:30.994Z,0.80
2023-02-06T23:17:00.873Z,0.80
2023-02-06T23:19:29.082Z,0.80
2023-02-06T23:21:56.241Z,0.80
2023-02-06T23:24:23.056Z,0.80
2023-02-06T23:26:52.187Z,0.90
2023-02-06T23:29:20.718Z,0.90
2023-02-06T23:31:49.129Z,0.90
2023-02-06T23:34:17.877Z,0.80
2023-02-06T23:36:46.084Z,0.80
2023-02-06T23:39:13.656Z,0.80
2023-02-06T23:41:40.998Z,0.70
2023-02-06T23:44:10.287Z,0.70
2023-02-06T23:46:39.222Z,0.60
2023-02-06T23:49:07.377Z,0.50
2023-02-06T23:51:36.497Z,0.50
2023-02-06T23:54:04.794Z,0.40
2023-02-06T23:56:32.450Z,0.40
2023-02-06T23:59:01.519Z,0.40
